Time;durP1;ratioP1;P1;durP2;ratioP2;P2;SDS_P1;SDS_P2;PMS_P1;PMS_P2;Temp;Humidity;BMP_temperature;BMP_pressure;BME280_temperature;BME280_humidity;BME280_pressure;Samples;Min_cycle;Max_cycle;Signal;HPM_P1;HPM_P2
2022/11/02 17:51:22;;;;;;;12.53;1.10;;;27.70;55.90;;;;;;5085393;27;20494;-68
2022/11/02 17:53:49;;;;;;;10.75;1.25;;;28.20;45.10;;;;;;5085921;28;20063;-66
2022/11/02 17:56:16;;;;;;;36.13;1.83;;;;;;;;;;5092475;28;20080;-65
2022/11/02 17:58:42;;;;;;;13.60;1.50;;;27.00;83.60;;;;;;5086655;28;20024;-66
2022/11/02 18:01:12;;;;;;;17.33;2.42;;;27.30;77.70;;;;;;5086789;28;20087;-62
2022/11/02 18:03:40;;;;;;;11.63;1.30;;;27.40;88.80;;;;;;5094114;28;20136;-66
2022/11/02 18:06:07;;;;;;;13.82;1.40;;;27.20;68.60;;;;;;5101396;28;20405;-64
2022/11/02 18:09:09;;;;;;;15.13;1.20;;;27.60;47.50;;;;;;5086046;28;20017;-62
2022/11/02 18:11:20;;;;;;;13.60;1.83;;;;;;;;;;5097722;28;20095;-63
2022/11/02 18:13:46;;;;;;;47.70;3.65;;;28.60;57.70;;;;;;5105421;28;20024;-61
2022/11/02 18:16:12;;;;;;;104.90;8.55;;;28.60;47.10;;;;;;5085941;28;20032;-65
2022/11/02 18:18:39;;;;;;;31.73;3.80;;;28.30;46.60;;;;;;5086249;28;20107;-68
2022/11/02 18:21:05;;;;;;;15.80;1.30;;;28.60;79.10;;;;;;5085652;28;20137;-68
2022/11/02 18:23:33;;;;;;;60.50;3.25;;;27.90;61.80;;;;;;5086180;28;20048;-60
2022/11/02 18:26:00;;;;;;;18.17;1.90;;;27.50;65.60;;;;;;5085503;28;20028;-63
2022/11/02 18:28:26;;;;;;;21.42;1.20;;;27.40;82.90;;;;;;5088138;28;20355;-67
2022/11/02 18:30:53;;;;;;;16.00;1.10;;;27.00;50.70;;;;;;5086404;28;20028;-65
2022/11/02 18:33:19;;;;;;;32.97;2.75;;;26.80;81.50;;;;;;5086591;28;20503;-68
2022/11/02 18:35:46;;;;;;;55.50;3.95;;;28.00;78.70;;;;;;5096383;28;20092;-65
2022/11/02 18:38:12;;;;;;;44.80;3.13;;;28.00;80.10;;;;;;5090016;28;20020;-64
2022/11/02 18:40:39;;;;;;;6.88;0.70;;;;;;;;;;5085754;28;20057;-71
2022/11/02 18:43:05;;;;;;;5.22;1.23;;;27.20;76.30;;;;;;5088535;28;20493;-61
2022/11/02 18:45:32;;;;;;;26.23;1.60;;;27.40;76.80;;;;;;5087018;28;20482;-64
2022/11/02 18:47:58;;;;;;;15.82;1.30;;;27.60;80.60;;;;;;5085600;28;20377;-67
2022/11/02 18:50:24;;;;;;;12.55;0.93;;;27.50;76.60;;;;;;5085092;28;20394;-60
2022/11/02 18:52:51;;;;;;;11.43;1.20;;;27.90;50.40;;;;;;5088125;28;20119;-67
2022/11/02 18:55:17;;;;;;;1.58;0.75;;;28.40;81.20;;;;;;5087272;28;20017;-68
2022/11/02 18:57:44;;;;;;;7.00;0.40;;;29.10;69.80;;;;;;5098571;28;20375;-65
2022/11/02 19:00:11;;;;;;;4.13;0.70;;;28.90;79.10;;;;;;5091601;28;20107;-65
2022/11/02 19:02:39;;;;;;;19.85;1.63;;;28.20;79.70;;;;;;5072739;28;20481;-67
2022/11/02 19:09:16;;;;;;;14.45;3.15;;;28.00;80.20;;;;;;5070713;28;20029;-71
2022/11/02 19:10:46;;;;;;;17.92;1.70;;;27.40;47.10;;;;;;5071733;28;20078;-69
2022/11/02 19:13:12;;;;;;;19.50;2.13;;;26.60;76.70;;;;;;5070593;28;20074;-67
2022/11/02 19:15:39;;;;;;;20.55;3.63;;;26.50;79.60;;;;;;5078218;28;20545;-67
2022/11/02 19:18:05;;;;;;;17.42;1.02;;;26.20;47.50;;;;;;5071548;28;20020;-67
2022/11/02 19:20:31;;;;;;;34.70;23.30;;;26.20;46.90;;;;;;5085067;28;20110;-67
2022/11/02 19:22:58;;;;;;;25.13;19.30;;;26.00;47.50;;;;;;5076179;28;20065;-65
2022/11/02 19:25:24;;;;;;;32.70;18.92;;;;;;;;;;5071282;28;20085;-72
2022/11/02 19:27:51;;;;;;;18.00;12.25;;;;;;;;;;5071309;28;20136;-73
2022/11/02 19:30:17;;;;;;;16.25;9.18;;;26.00;63.60;;;;;;5083497;28;20020;-74
2022/11/02 19:32:43;;;;;;;11.55;4.80;;;26.00;47.20;;;;;;5072181;28;20060;-65
2022/11/02 19:35:10;;;;;;;22.42;9.18;;;26.00;47.80;;;;;;5075444;28;20063;-66
2022/11/02 19:37:36;;;;;;;16.58;1.75;;;;;;;;;;5079584;28;20057;-67
2022/11/02 19:40:03;;;;;;;44.00;3.08;;;25.80;71.80;;;;;;5082826;28;20607;-68
2022/11/02 19:42:29;;;;;;;23.60;1.40;;;25.30;49.30;;;;;;5074875;28;20102;-68
2022/11/02 19:44:56;;;;;;;12.43;1.30;;;25.50;63.20;;;;;;5074633;28;20047;-68
2022/11/02 19:47:22;;;;;;;12.10;1.42;;;25.50;50.60;;;;;;5080053;28;20561;-70
2022/11/02 19:49:48;;;;;;;14.32;1.88;;;25.30;50.90;;;;;;5072462;28;20511;-68
2022/11/02 19:52:15;;;;;;;11.45;2.05;;;25.20;51.40;;;;;;5076979;28;20522;-69
2022/11/02 19:54:41;;;;;;;22.67;2.28;;;25.20;51.10;;;;;;5082779;28;20573;-67
2022/11/02 19:57:07;;;;;;;31.77;3.13;;;25.40;71.20;;;;;;5078577;28;20122;-68
2022/11/02 19:59:34;;;;;;;27.80;3.00;;;25.90;70.40;;;;;;5078702;28;20489;-67
2022/11/02 20:02:00;;;;;;;38.55;2.90;;;25.50;90.70;;;;;;5084236;28;20024;-70
2022/11/02 20:04:26;;;;;;;43.72;3.42;;;25.30;51.10;;;;;;5079798;28;20098;-65
2022/11/02 20:06:53;;;;;;;57.40;4.25;;;25.50;51.30;;;;;;5075695;28;20080;-68
2022/11/02 20:09:19;;;;;;;34.35;2.70;;;25.20;51.20;;;;;;5078671;28;20561;-69
2022/11/02 20:11:47;;;;;;;38.33;2.38;;;25.30;51.30;;;;;;5076651;28;20092;-67
2022/11/02 20:14:15;;;;;;;29.23;2.85;;;25.40;51.40;;;;;;5083394;28;20445;-68
2022/11/02 20:16:42;;;;;;;22.33;1.73;;;25.20;51.30;;;;;;5074046;28;20080;-68
2022/11/02 20:19:09;;;;;;;20.95;1.70;;;24.80;52.00;;;;;;5080338;28;20096;-68
2022/11/02 20:21:36;;;;;;;10.75;1.35;;;24.80;52.50;;;;;;5079793;28;20065;-68
2022/11/02 20:24:03;;;;;;;21.77;1.95;;;24.80;52.00;;;;;;5078183;28;20433;-68
2022/11/02 20:26:32;;;;;;;19.13;1.60;;;24.90;52.30;;;;;;5083229;28;20080;-66
2022/11/02 20:29:03;;;;;;;25.73;2.47;;;24.90;51.80;;;;;;5082716;28;20061;-64
2022/11/02 20:31:32;;;;;;;17.85;2.28;;;25.10;51.70;;;;;;5079290;28;20076;-66
2022/11/02 20:33:59;;;;;;;20.05;1.90;;;24.90;51.30;;;;;;5076902;28;20558;-67
2022/11/02 20:36:26;;;;;;;22.05;2.00;;;24.80;51.10;;;;;;5080814;28;20103;-65
2022/11/02 20:38:53;;;;;;;27.02;5.15;;;24.90;50.70;;;;;;5079546;28;20061;-66
2022/11/02 20:41:22;;;;;;;14.68;2.42;;;25.00;49.60;;;;;;5085159;28;20620;-70
2022/11/02 20:43:51;;;;;;;42.88;2.97;;;24.80;49.40;;;;;;5074932;28;20093;-66
2022/11/02 20:46:25;;;;;;;24.38;2.05;;;24.80;49.30;;;;;;5086630;28;20087;-69
2022/11/02 20:48:55;;;;;;;15.15;1.92;;;24.90;48.80;;;;;;5091261;28;20064;-63
2022/11/02 20:51:23;;;;;;;17.42;1.48;;;24.80;48.60;;;;;;5087953;28;20084;-69
2022/11/02 20:53:51;;;;;;;10.15;1.35;;;24.80;48.90;;;;;;5095062;28;20537;-64
2022/11/02 20:56:18;;;;;;;23.52;1.95;;;25.00;49.00;;;;;;5080051;28;20072;-69
2022/11/02 20:58:45;;;;;;;20.17;6.45;;;25.10;48.00;;;;;;5076779;28;20069;-69
2022/11/02 21:01:14;;;;;;;47.72;4.10;;;25.00;47.80;;;;;;5082392;28;20076;-67
2022/11/02 21:03:41;;;;;;;26.27;3.75;;;25.00;47.60;;;;;;5080938;28;20122;-67
2022/11/02 21:06:07;;;;;;;30.48;2.53;;;24.90;47.10;;;;;;5081683;28;20428;-67
2022/11/02 21:08:34;;;;;;;29.88;2.38;;;25.00;47.10;;;;;;5078378;28;20448;-68
2022/11/02 21:11:03;;;;;;;49.25;3.90;;;25.50;47.10;;;;;;5080858;28;20200;-67
2022/11/02 21:16:14;;;;;;;31.85;2.25;;;25.80;48.90;;;;;;5086431;28;20545;-68
2022/11/02 21:18:41;;;;;;;36.70;2.90;;;25.60;46.40;;;;;;5083592;28;20082;-65
2022/11/02 21:21:13;;;;;;;37.13;2.97;;;25.80;46.30;;;;;;5075831;28;20076;-66
2022/11/02 21:23:40;;;;;;;26.25;2.50;;;25.70;46.00;;;;;;5074556;28;20077;-66
2022/11/02 21:26:08;;;;;;;37.20;2.78;;;25.60;44.30;;;;;;5077036;28;20080;-66
2022/11/02 21:28:37;;;;;;;60.17;4.07;;;25.70;43.90;;;;;;5080586;28;20072;-72
2022/11/02 21:31:14;;;;;;;53.78;3.30;;;25.70;43.90;;;;;;5078768;28;20453;-71
2022/11/02 21:33:40;;;;;;;;;;;25.80;43.70;;;;;;5079847;28;20073;-67
2022/11/02 21:36:07;;;;;;;33.42;3.10;;;25.80;42.20;;;;;;5080240;28;19968;-69
2022/11/02 21:38:33;;;;;;;41.53;3.63;;;25.30;69.30;;;;;;5078857;28;20068;-70
2022/11/02 21:41:01;;;;;;;14.82;2.97;;;25.50;70.50;;;;;;5075192;28;20070;-70
2022/11/02 21:43:29;;;;;;;16.95;1.88;;;25.40;49.30;;;;;;5079949;28;20076;-68
2022/11/02 21:46:00;;;;;;;33.13;3.05;;;25.50;48.90;;;;;;5081678;28;20089;-67
2022/11/02 21:48:32;;;;;;;22.13;1.48;;;25.40;40.40;;;;;;5075144;28;20109;-65
2022/11/02 21:51:08;;;;;;;50.30;3.60;;;25.50;49.00;;;;;;5078226;28;20119;-68
2022/11/02 21:53:37;;;;;;;18.73;2.00;;;25.30;40.90;;;;;;5075234;28;20443;-66
2022/11/02 21:56:06;;;;;;;28.00;2.88;;;24.30;76.80;;;;;;5075998;28;20066;-67
2022/11/02 21:58:33;;;;;;;17.08;4.68;;;25.10;40.60;;;;;;5077567;28;20042;-66
2022/11/02 22:03:46;;;;;;;22.88;2.10;;;25.10;40.90;;;;;;5077388;28;20130;-67
2022/11/02 22:06:13;;;;;;;15.30;1.88;;;25.40;74.00;;;;;;5080954;28;20050;-69
2022/11/02 22:08:40;;;;;;;6.13;1.20;;;24.60;76.50;;;;;;5078111;28;20059;-69
2022/11/02 22:11:15;;;;;;;24.73;1.92;;;25.00;40.70;;;;;;5074673;28;20071;-67
2022/11/02 22:13:43;;;;;;;13.77;1.98;;;25.00;41.00;;;;;;5079964;28;20073;-66
2022/11/02 22:16:10;;;;;;;15.02;4.60;;;25.20;40.90;;;;;;5086218;28;20069;-70
2022/11/02 22:18:37;;;;;;;15.27;5.38;;;25.30;40.40;;;;;;5079531;28;20077;-66
2022/11/02 22:21:03;;;;;;;23.58;2.55;;;24.90;39.20;;;;;;5075782;28;20077;-69
2022/11/02 22:23:30;;;;;;;23.30;3.97;;;24.80;39.50;;;;;;5081865;28;20122;-68
2022/11/02 22:26:03;;;;;;;10.23;1.33;;;24.70;39.40;;;;;;5083229;28;20080;-66
2022/11/02 22:28:32;;;;;;;14.88;2.33;;;24.70;42.60;;;;;;5081509;28;20032;-70
2022/11/02 22:31:03;;;;;;;21.10;2.63;;;24.90;38.30;;;;;;5076001;28;20159;-64
2022/11/02 22:33:31;;;;;;;6.97;1.27;;;25.10;37.70;;;;;;5078664;28;20077;-67
2022/11/02 22:35:57;;;;;;;19.17;1.65;;;24.70;37.30;;;;;;5082437;28;20073;-67
2022/11/02 22:41:08;;;;;;;9.55;1.10;;;24.50;37.10;;;;;;5079993;28;20129;-67
2022/11/02 22:43:35;;;;;;;15.52;1.85;;;24.50;37.70;;;;;;5076656;28;20099;-65
2022/11/02 22:46:06;;;;;;;13.00;2.28;;;24.60;37.30;;;;;;5079193;28;20164;-68
2022/11/02 22:48:33;;;;;;;20.38;9.20;;;24.70;37.10;;;;;;5082152;28;20481;-66
2022/11/02 22:50:59;;;;;;;21.60;4.28;;;24.80;36.90;;;;;;5085000;28;20109;-70
2022/11/02 22:53:29;;;;;;;15.77;2.03;;;24.70;37.70;;;;;;5083962;28;20091;-68
2022/11/02 22:56:06;;;;;;;10.65;1.30;;;24.70;37.50;;;;;;5084565;28;20084;-64
2022/11/02 22:58:33;;;;;;;13.77;1.90;;;24.70;35.50;;;;;;5079533;28;20095;-65
2022/11/02 23:01:00;;;;;;;8.88;2.00;;;24.60;34.60;;;;;;5084049;28;20561;-67
2022/11/02 23:03:28;;;;;;;14.07;1.75;;;24.50;35.20;;;;;;5081098;28;20159;-69
2022/11/02 23:05:55;;;;;;;11.10;2.40;;;24.30;34.50;;;;;;5076076;28;20081;-67
2022/11/02 23:08:21;;;;;;;8.27;1.60;;;24.50;34.60;;;;;;5082655;28;20069;-70
2022/11/02 23:13:37;;;;;;;14.40;1.75;;;24.50;36.50;;;;;;5080844;28;20437;-67
2022/11/02 23:16:20;;;;;;;14.40;1.80;;;24.50;35.30;;;;;;5089137;28;20095;-67
2022/11/02 23:21:38;;;;;;;12.93;3.67;;;24.30;33.90;;;;;;5085242;28;20088;-64
2022/11/02 23:26:50;;;;;;;12.27;2.00;;;24.20;32.70;;;;;;5078133;28;20138;-63
2022/11/02 23:37:30;;;;;;;8.57;2.60;;;24.40;32.10;;;;;;5084467;28;20141;-69
2022/11/02 23:39:57;;;;;;;14.48;1.83;;;24.10;31.20;;;;;;5082944;28;20084;-65
2022/11/02 23:42:23;;;;;;;13.85;2.55;;;24.10;31.80;;;;;;5082934;28;20112;-66
2022/11/02 23:44:50;;;;;;;27.13;1.90;;;24.00;31.20;;;;;;5077127;28;20077;-65
2022/11/02 23:47:16;;;;;;;14.13;1.60;;;23.90;31.10;;;;;;5079686;28;20072;-67
2022/11/02 23:49:42;;;;;;;11.43;2.03;;;23.80;30.50;;;;;;5085952;28;20469;-67
2022/11/02 23:57:42;;;;;;;17.48;2.17;;;23.60;37.50;;;;;;5084157;28;20080;-69
